Time;durP1;ratioP1;P1;durP2;ratioP2;P2;SDS_P1;SDS_P2;PMS_P1;PMS_P2;Temp;Humidity;BMP_temperature;BMP_pressure;BME280_temperature;BME280_humidity;BME280_pressure;Samples;Min_cycle;Max_cycle;Signal;HPM_P1;HPM_P2
2023/12/04 00:00:10;;;;;;;32.03;17.27;;;;;;;-1.87;100.00;101861.09;5032243;28;20211;-44
2023/12/04 00:02:39;;;;;;;30.48;17.73;;;;;;;-1.90;100.00;101860.13;5032513;28;20172;-44
2023/12/04 00:05:05;;;;;;;31.58;17.58;;;;;;;-1.88;100.00;101861.03;5032137;28;20203;-42
2023/12/04 00:07:31;;;;;;;33.88;18.20;;;;;;;-1.82;100.00;101862.97;5032367;28;20508;-45
2023/12/04 00:09:56;;;;;;;31.35;18.58;;;;;;;-1.81;100.00;101859.53;5032388;28;20203;-45
2023/12/04 00:12:22;;;;;;;36.38;22.65;;;;;;;-1.80;100.00;101848.16;5032320;28;20191;-45
2023/12/04 00:14:47;;;;;;;28.63;18.38;;;;;;;-1.74;100.00;101849.22;5032101;28;20176;-46
2023/12/04 00:17:13;;;;;;;28.95;18.33;;;;;;;-1.77;100.00;101854.41;5031922;28;20216;-46
2023/12/04 00:19:38;;;;;;;31.92;17.45;;;;;;;-1.88;100.00;101851.47;5031937;28;20202;-46
2023/12/04 00:22:03;;;;;;;30.98;16.77;;;;;;;-1.92;100.00;101857.47;5031840;28;20222;-45
2023/12/04 00:24:29;;;;;;;30.50;17.83;;;;;;;-1.88;100.00;101853.16;5031814;28;20527;-44
2023/12/04 00:26:54;;;;;;;52.63;33.20;;;;;;;-1.91;100.00;101840.84;5031689;28;20199;-46
2023/12/04 00:29:20;;;;;;;33.15;20.15;;;;;;;-1.91;100.00;101840.84;5032060;28;20594;-43
2023/12/04 00:31:45;;;;;;;28.60;19.05;;;;;;;-1.90;100.00;101833.88;5031604;28;20563;-45
2023/12/04 00:34:12;;;;;;;30.13;15.85;;;;;;;-1.89;100.00;101826.03;5031627;28;20178;-43
2023/12/04 00:36:37;;;;;;;33.45;18.95;;;;;;;-1.89;100.00;101827.75;5031619;28;20696;-45
2023/12/04 00:39:03;;;;;;;27.67;16.88;;;;;;;-1.87;100.00;101829.59;5031736;28;20168;-47
2023/12/04 00:41:29;;;;;;;26.70;16.23;;;;;;;-1.90;100.00;101818.13;5031493;28;20207;-46
2023/12/04 00:43:55;;;;;;;26.67;15.57;;;;;;;-1.88;100.00;101811.13;5031670;28;20551;-45
2023/12/04 00:46:20;;;;;;;27.27;16.10;;;;;;;-1.81;100.00;101813.13;5040353;28;20258;-43
2023/12/04 00:48:46;;;;;;;29.90;16.48;;;;;;;-1.87;100.00;101803.31;5051402;28;20194;-46
2023/12/04 00:51:11;;;;;;;28.20;16.70;;;;;;;-1.87;100.00;101810.31;5050610;28;20304;-47
2023/12/04 00:53:37;;;;;;;33.55;16.40;;;;;;;-1.97;100.00;101805.63;5051557;28;20209;-47
2023/12/04 00:56:03;;;;;;;29.77;17.30;;;;;;;-1.98;100.00;101809.13;5033329;28;20664;-45
2023/12/04 00:58:28;;;;;;;25.92;14.80;;;;;;;-2.03;100.00;101805.44;5051378;28;20629;-44
2023/12/04 01:00:55;;;;;;;29.20;16.60;;;;;;;-2.06;100.00;101795.75;5051325;28;20221;-46
2023/12/04 01:03:20;;;;;;;29.77;15.90;;;;;;;-2.10;100.00;101784.28;5051300;28;20212;-44
2023/12/04 01:05:46;;;;;;;26.70;16.30;;;;;;;-2.14;100.00;101785.06;5000920;28;20677;-44
2023/12/04 01:08:11;;;;;;;33.15;19.33;;;;;;;-2.10;100.00;101799.13;5033640;28;20246;-47
2023/12/04 01:10:39;;;;;;;28.90;16.63;;;;;;;-2.22;100.00;101783.03;5051164;28;20227;-46
2023/12/04 01:13:04;;;;;;;30.50;16.35;;;;;;;-2.27;100.00;101782.91;5051149;28;20270;-44
2023/12/04 01:15:30;;;;;;;28.75;16.15;;;;;;;-2.32;100.00;101787.13;5036065;28;20272;-43
2023/12/04 01:17:56;;;;;;;32.67;15.88;;;;;;;-2.33;100.00;101774.84;5013656;28;20180;-48
2023/12/04 01:20:21;;;;;;;30.05;16.75;;;;;;;-2.36;100.00;101770.41;5031066;28;20309;-44
2023/12/04 01:22:47;;;;;;;26.75;15.52;;;;;;;-2.37;100.00;101776.47;5031083;28;20603;-45
2023/12/04 01:25:12;;;;;;;27.35;16.00;;;;;;;-2.41;100.00;101776.34;5031085;28;20203;-45
2023/12/04 01:27:38;;;;;;;31.40;17.75;;;;;;;-2.40;100.00;101765.03;5041386;28;20175;-45
2023/12/04 01:30:05;;;;;;;25.17;14.65;;;;;;;-2.39;100.00;101769.41;5048799;28;20195;-44
2023/12/04 01:32:31;;;;;;;30.77;14.98;;;;;;;-2.43;100.00;101762.28;5050545;28;20186;-46
2023/12/04 01:34:57;;;;;;;29.08;15.18;;;;;;;-2.50;100.00;101766.47;5050963;28;20179;-44
2023/12/04 01:37:23;;;;;;;28.13;14.65;;;;;;;-2.51;100.00;101765.59;5050390;28;20239;-47
2023/12/04 01:39:49;;;;;;;29.02;15.50;;;;;;;-2.54;100.00;101756.72;5050630;28;20223;-46
2023/12/04 01:42:15;;;;;;;31.83;15.68;;;;;;;-2.49;100.00;101770.88;5050531;28;20647;-45
2023/12/04 01:44:40;;;;;;;28.98;15.90;;;;;;;-2.54;100.00;101765.47;5050430;28;20179;-43
2023/12/04 01:47:07;;;;;;;26.75;15.68;;;;;;;-2.58;100.00;101755.75;5032326;28;20171;-45
2023/12/04 01:49:32;;;;;;;36.33;17.98;;;;;;;-2.57;100.00;101767.13;5050414;28;20183;-48
2023/12/04 01:51:58;;;;;;;33.53;16.45;;;;;;;-2.59;100.00;101772.31;5050246;28;20186;-45
2023/12/04 01:54:25;;;;;;;34.35;15.98;;;;;;;-2.66;100.00;101773.00;5050415;28;20179;-44
2023/12/04 01:56:50;;;;;;;29.40;15.60;;;;;;;-2.69;100.00;101767.63;5050126;28;20207;-44
2023/12/04 01:59:16;;;;;;;32.65;15.90;;;;;;;-2.72;100.00;101763.19;5050056;28;20240;-47
2023/12/04 02:01:42;;;;;;;28.42;15.80;;;;;;;-2.68;100.00;101756.31;5049991;28;20542;-46
2023/12/04 02:04:08;;;;;;;33.08;15.38;;;;;;;-2.73;100.00;101756.16;5050234;28;20249;-45
2023/12/04 02:06:34;;;;;;;31.75;16.50;;;;;;;-2.70;100.00;101758.00;5050382;28;20498;-46
2023/12/04 02:09:00;;;;;;;29.40;15.70;;;;;;;-2.72;100.00;101747.44;5045169;28;20172;-45
2023/12/04 02:11:25;;;;;;;30.10;15.65;;;;;;;-2.68;100.00;101747.56;5046307;28;20249;-44
2023/12/04 02:13:51;;;;;;;26.23;14.48;;;;;;;-2.73;100.00;101744.81;5030020;28;20210;-45
2023/12/04 02:16:19;;;;;;;27.35;14.20;;;;;;;-2.71;100.00;101736.13;5030020;28;20211;-45
2023/12/04 02:18:45;;;;;;;26.88;14.75;;;;;;;-2.76;100.00;101736.81;5029860;28;20184;-44
2023/12/04 02:21:11;;;;;;;29.90;16.35;;;;;;;-2.80;100.00;101740.19;5030246;28;20245;-43
2023/12/04 02:23:36;;;;;;;28.48;14.50;;;;;;;-2.79;100.00;101732.38;5029933;28;20573;-47
2023/12/04 02:26:28;;;;;;;32.97;16.02;;;;;;;-2.83;100.00;101737.47;5029926;28;20259;-45
2023/12/04 02:29:04;;;;;;;25.83;14.18;;;;;;;-2.84;100.00;101738.31;5030155;28;20164;-43
2023/12/04 02:31:31;;;;;;;29.35;13.70;;;;;;;-2.92;100.00;101719.72;5030063;28;20204;-43
2023/12/04 02:34:00;;;;;;;26.95;15.20;;;;;;;-2.91;100.00;101717.16;5042597;28;20503;-43
2023/12/04 02:36:29;;;;;;;34.33;17.17;;;;;;;-2.89;100.00;101714.56;5049927;28;20608;-45
2023/12/04 02:38:55;;;;;;;26.35;14.50;;;;;;;-2.98;100.00;101711.66;5050084;28;20186;-46
2023/12/04 02:41:21;;;;;;;27.63;15.15;;;;;;;-2.99;100.00;101704.66;5050260;28;20203;-45
2023/12/04 02:43:46;;;;;;;28.25;14.05;;;;;;;-3.02;100.00;101701.91;5050207;28;20248;-45
2023/12/04 02:46:12;;;;;;;31.50;15.10;;;;;;;-3.05;100.00;101701.84;5031963;28;20216;-44
2023/12/04 02:48:37;;;;;;;26.98;13.93;;;;;;;-3.11;100.00;101706.03;5049960;28;20159;-43
2023/12/04 02:51:03;;;;;;;22.30;13.05;;;;;;;-3.09;100.00;101699.97;5049746;28;20297;-45
2023/12/04 02:53:29;;;;;;;30.95;13.80;;;;;;;-3.12;100.00;101695.50;5048494;28;20180;-47
2023/12/04 02:55:54;;;;;;;22.40;13.10;;;;;;;-3.09;100.00;101702.56;5049355;28;20260;-44
2023/12/04 02:58:20;;;;;;;24.42;13.20;;;;;;;-3.16;100.00;101698.88;5049805;28;20172;-45
2023/12/04 03:00:45;;;;;;;25.92;13.65;;;;;;;-3.24;100.00;101689.88;5049296;28;20209;-47
2023/12/04 03:03:11;;;;;;;25.92;13.68;;;;;;;-3.20;100.00;101694.38;5049427;28;20167;-44
2023/12/04 03:05:36;;;;;;;29.35;13.73;;;;;;;-3.18;100.00;101682.22;5049529;28;20188;-45
2023/12/04 03:08:02;;;;;;;25.05;14.15;;;;;;;-3.27;100.00;101687.16;5049591;28;20183;-47
2023/12/04 03:10:27;;;;;;;28.70;14.23;;;;;;;-3.34;100.00;101692.19;5049575;28;20187;-45
2023/12/04 03:12:53;;;;;;;24.17;13.07;;;;;;;-3.33;100.00;101693.09;5050518;28;20171;-45
2023/12/04 03:15:18;;;;;;;25.10;14.02;;;;;;;-3.39;100.00;101691.19;5053169;28;20531;-45
2023/12/04 03:17:44;;;;;;;25.60;12.73;;;;;;;-3.35;100.00;101685.16;5053372;28;20651;-44
2023/12/04 03:20:10;;;;;;;26.90;13.52;;;;;;;-3.44;100.00;101674.41;5053067;28;20207;-47
2023/12/04 03:22:37;;;;;;;22.10;12.05;;;;;;;-3.41;100.00;101670.97;5053011;28;20616;-45
2023/12/04 03:25:03;;;;;;;24.83;13.32;;;;;;;-3.49;100.00;101669.88;5053240;28;20171;-45
2023/12/04 03:27:28;;;;;;;25.17;13.50;;;;;;;-3.50;100.00;101668.06;5052994;28;20613;-45
2023/12/04 03:29:54;;;;;;;25.20;12.90;;;;;;;-3.52;100.00;101660.16;5052850;28;20183;-45
2023/12/04 03:32:20;;;;;;;23.67;13.55;;;;;;;-3.64;100.00;101654.53;5052735;28;20714;-46
2023/12/04 03:34:45;;;;;;;24.38;13.13;;;;;;;-3.63;100.00;101657.22;5052845;28;20163;-44
2023/12/04 03:37:11;;;;;;;30.88;13.68;;;;;;;-3.61;100.00;101647.69;5038794;28;20246;-45
2023/12/04 03:39:36;;;;;;;25.02;13.07;;;;;;;-3.73;100.00;101644.66;5032680;28;20249;-44
2023/12/04 03:42:02;;;;;;;24.65;12.63;;;;;;;-3.73;100.00;101642.91;5032623;28;20230;-44
2023/12/04 03:44:27;;;;;;;22.38;11.60;;;;;;;-3.73;100.00;101642.03;5032747;28;20233;-44
2023/12/04 03:46:53;;;;;;;25.20;13.00;;;;;;;-3.73;100.00;101635.06;5014852;28;20176;-45
2023/12/04 03:49:19;;;;;;;29.65;13.18;;;;;;;-3.76;100.00;101634.06;5032649;28;20199;-47
2023/12/04 03:51:44;;;;;;;26.77;12.13;;;;;;;-3.75;100.00;101636.72;5032580;28;20164;-46
2023/12/04 03:54:10;;;;;;;24.35;11.88;;;;;;;-3.79;100.00;101621.75;5033092;28;20580;-46
2023/12/04 03:56:35;;;;;;;24.48;12.35;;;;;;;-3.81;100.00;101623.44;5032572;28;20200;-46
2023/12/04 03:59:00;;;;;;;22.95;12.00;;;;;;;-3.81;100.00;101626.03;5032643;28;20268;-46
2023/12/04 04:01:26;;;;;;;23.58;11.80;;;;;;;-3.82;100.00;101615.56;5032847;28;20223;-45
2023/12/04 04:03:51;;;;;;;22.70;12.95;;;;;;;-3.81;100.00;101620.81;5032538;28;20737;-45
2023/12/04 04:06:17;;;;;;;26.63;13.82;;;;;;;-3.82;100.00;101620.78;5032604;28;20163;-46
2023/12/04 04:08:42;;;;;;;21.00;12.20;;;;;;;-3.88;100.00;101617.97;5032456;28;20211;-45
2023/12/04 04:11:08;;;;;;;26.20;12.20;;;;;;;-3.92;100.00;101619.56;5032442;28;20298;-45
2023/12/04 04:13:33;;;;;;;25.90;12.13;;;;;;;-3.88;100.00;101617.97;5032523;28;20643;-44
2023/12/04 04:15:59;;;;;;;24.23;13.13;;;;;;;-3.83;100.00;101619.00;5032299;28;20196;-45
2023/12/04 04:18:24;;;;;;;21.67;12.50;;;;;;;-3.88;100.00;101616.22;5032188;28;20210;-45
2023/12/04 04:20:50;;;;;;;25.13;12.85;;;;;;;-3.90;100.00;101609.16;5032197;28;20196;-44
2023/12/04 04:23:15;;;;;;;28.13;12.98;;;;;;;-3.90;100.00;101614.41;5032180;28;20259;-45
2023/12/04 04:25:41;;;;;;;24.98;12.13;;;;;;;-3.89;100.00;101619.69;5030823;28;20704;-46
2023/12/04 04:28:06;;;;;;;26.40;12.82;;;;;;;-3.92;100.00;101605.59;5032223;28;20196;-46
2023/12/04 04:30:32;;;;;;;22.30;12.95;;;;;;;-3.95;100.00;101604.66;5031895;28;20617;-49
2023/12/04 04:32:57;;;;;;;24.85;13.02;;;;;;;-4.01;100.00;101607.06;5032196;28;20642;-47
2023/12/04 04:35:23;;;;;;;25.48;13.02;;;;;;;-4.04;100.00;101598.25;5031785;28;20183;-46
2023/12/04 04:37:48;;;;;;;23.23;13.32;;;;;;;-4.03;100.00;101598.28;5031960;28;20191;-44
2023/12/04 04:40:14;;;;;;;27.33;12.43;;;;;;;-4.00;100.00;101593.16;5031869;28;20187;-45
2023/12/04 04:42:39;;;;;;;27.33;12.57;;;;;;;-4.01;100.00;101590.47;5031744;28;20674;-46
2023/12/04 04:45:06;;;;;;;27.50;13.15;;;;;;;-4.05;100.00;101593.81;5031670;28;20172;-44
2023/12/04 04:47:31;;;;;;;26.70;12.82;;;;;;;-4.03;100.00;101592.16;5031573;28;20175;-45
2023/12/04 04:49:57;;;;;;;28.27;14.68;;;;;;;-4.08;100.00;101585.88;5031831;28;20207;-45
2023/12/04 04:52:22;;;;;;;27.77;13.48;;;;;;;-4.10;100.00;101593.69;5031063;28;20271;-45
2023/12/04 04:54:48;;;;;;;29.52;14.07;;;;;;;-4.09;100.00;101581.47;5031407;28;20172;-44
2023/12/04 04:57:13;;;;;;;25.90;12.45;;;;;;;-4.14;100.00;101576.09;5031386;28;20199;-47
2023/12/04 04:59:39;;;;;;;25.75;13.73;;;;;;;-4.19;100.00;101583.78;5013427;28;20275;-45
2023/12/04 05:02:04;;;;;;;29.23;13.60;;;;;;;-4.25;100.00;101583.56;5030885;28;20160;-44
2023/12/04 05:04:30;;;;;;;27.20;13.30;;;;;;;-4.23;100.00;101581.03;5013554;28;20198;-45
2023/12/04 05:06:55;;;;;;;24.77;12.65;;;;;;;-4.25;100.00;101575.72;5031424;28;20200;-44
2023/12/04 05:09:21;;;;;;;26.83;13.18;;;;;;;-4.20;100.00;101589.88;5031646;28;20164;-44
2023/12/04 05:11:46;;;;;;;27.38;13.80;;;;;;;-4.24;100.00;101587.97;5031522;28;20195;-43
2023/12/04 05:14:12;;;;;;;25.27;11.43;;;;;;;-4.16;100.00;101583.00;5031398;28;20218;-44
2023/12/04 05:16:37;;;;;;;24.73;12.25;;;;;;;-4.20;100.00;101573.25;5031555;28;20230;-45
2023/12/04 05:19:03;;;;;;;24.73;12.82;;;;;;;-4.20;100.00;101568.94;5032012;28;20183;-45
2023/12/04 05:21:28;;;;;;;25.75;12.98;;;;;;;-4.21;100.00;101575.00;5013996;28;20682;-45
2023/12/04 05:23:54;;;;;;;26.55;13.10;;;;;;;-4.20;100.00;101565.41;5031633;28;20267;-46
2023/12/04 05:26:19;;;;;;;25.40;12.20;;;;;;;-4.19;100.00;101573.31;5031477;28;20187;-46
2023/12/04 05:28:46;;;;;;;23.70;12.45;;;;;;;-4.20;100.00;101561.09;5031372;28;20168;-45
2023/12/04 05:31:11;;;;;;;27.58;12.90;;;;;;;-4.23;100.00;101568.81;5031316;28;20575;-46
2023/12/04 05:33:37;;;;;;;24.63;11.70;;;;;;;-4.27;100.00;101566.06;5031606;28;20176;-45
2023/12/04 05:36:03;;;;;;;24.80;13.27;;;;;;;-4.27;100.00;101566.06;5030647;28;20642;-47
2023/12/04 05:38:28;;;;;;;26.55;12.90;;;;;;;-4.32;100.00;101560.66;5031193;28;20209;-44
2023/12/04 05:40:54;;;;;;;25.45;13.05;;;;;;;-4.35;100.00;101565.81;5031247;28;20286;-47
2023/12/04 05:43:20;;;;;;;26.08;12.20;;;;;;;-4.37;100.00;101564.84;5031042;28;20172;-45
2023/12/04 05:45:45;;;;;;;23.63;12.40;;;;;;;-4.36;100.00;101564.88;5031152;28;20260;-45
2023/12/04 05:48:11;;;;;;;26.73;13.15;;;;;;;-4.39;100.00;101556.06;5030818;28;20188;-46
2023/12/04 05:50:36;;;;;;;22.85;12.13;;;;;;;-4.42;100.00;101555.94;5030737;28;20269;-45
2023/12/04 05:53:02;;;;;;;24.90;11.55;;;;;;;-4.43;100.00;101551.56;5030663;28;20191;-45
2023/12/04 05:55:27;;;;;;;19.88;11.32;;;;;;;-4.49;100.00;101556.59;5030548;28;20164;-43
2023/12/04 05:57:53;;;;;;;22.10;12.10;;;;;;;-4.54;100.00;101553.81;5030496;28;20245;-46
2023/12/04 06:00:18;;;;;;;22.45;11.73;;;;;;;-4.54;100.00;101551.19;5030656;28;20199;-47
2023/12/04 06:02:45;;;;;;;22.02;12.10;;;;;;;-4.49;100.00;101551.34;5030803;28;20211;-44
2023/12/04 06:05:11;;;;;;;22.45;11.13;;;;;;;-4.52;100.00;101541.69;5030477;28;20215;-48
2023/12/04 06:07:37;;;;;;;24.35;12.15;;;;;;;-4.45;100.00;101535.81;5030472;28;20208;-48
2023/12/04 06:10:06;;;;;;;20.40;11.88;;;;;;;-4.44;100.00;101549.78;5030365;28;20238;-44
2023/12/04 06:12:32;;;;;;;22.98;11.75;;;;;;;-4.40;100.00;101549.03;5030594;28;20164;-42
2023/12/04 06:15:00;;;;;;;23.42;11.77;;;;;;;-4.35;100.00;101542.25;5030336;28;20178;-46
2023/12/04 06:17:27;;;;;;;20.27;11.68;;;;;;;-4.36;100.00;101530.88;5030611;28;20211;-45
2023/12/04 06:19:53;;;;;;;23.98;13.73;;;;;;;-4.28;100.00;101527.66;5030318;28;20282;-45
2023/12/04 06:22:21;;;;;;;26.08;11.80;;;;;;;-4.27;100.00;101525.06;5030339;28;20233;-44
2023/12/04 06:24:47;;;;;;;26.05;11.57;;;;;;;-4.20;100.00;101523.56;5030317;28;20489;-44
2023/12/04 06:27:16;;;;;;;25.50;12.95;;;;;;;-4.17;100.00;101527.16;5030355;28;20247;-44
2023/12/04 06:29:42;;;;;;;25.35;13.20;;;;;;;-4.21;100.00;101512.19;5030217;28;20192;-44
2023/12/04 06:32:08;;;;;;;23.05;12.35;;;;;;;-4.17;100.00;101519.31;5030521;28;20244;-45
2023/12/04 06:34:34;;;;;;;22.70;12.73;;;;;;;-4.11;100.00;101509.88;5030139;28;20180;-46
2023/12/04 06:37:02;;;;;;;28.70;12.75;;;;;;;-4.10;100.00;101501.22;5030243;28;20243;-45
2023/12/04 06:39:32;;;;;;;25.55;12.68;;;;;;;-4.09;100.00;101492.50;5030090;28;20175;-44
2023/12/04 06:41:57;;;;;;;26.00;11.65;;;;;;;-4.06;100.00;101498.72;5030168;28;20187;-46
2023/12/04 06:44:23;;;;;;;22.27;12.45;;;;;;;-3.98;100.00;101496.34;5030155;28;20168;-44
2023/12/04 06:46:51;;;;;;;23.90;11.30;;;;;;;-4.04;100.00;101488.31;5030596;28;20627;-46
2023/12/04 06:49:18;;;;;;;22.35;11.25;;;;;;;-4.02;100.00;101500.63;5033557;28;20549;-46
2023/12/04 06:51:43;;;;;;;24.90;11.43;;;;;;;-3.97;100.00;101495.53;5034367;28;20184;-45
2023/12/04 06:54:09;;;;;;;24.05;12.52;;;;;;;-4.04;100.00;101501.41;5034487;28;20176;-44
2023/12/04 06:56:34;;;;;;;21.98;12.25;;;;;;;-3.94;100.00;101498.22;5034264;28;20264;-48
2023/12/04 06:59:00;;;;;;;23.67;12.75;;;;;;;-3.93;100.00;101502.63;5034151;28;20666;-44
2023/12/04 07:01:25;;;;;;;21.38;11.82;;;;;;;-3.89;100.00;101494.03;5033970;28;20666;-45
2023/12/04 07:03:51;;;;;;;21.88;11.82;;;;;;;-3.94;100.00;101496.53;5034010;28;20741;-48
2023/12/04 07:06:16;;;;;;;25.33;12.25;;;;;;;-3.89;100.00;101491.41;5034084;28;20157;-45
2023/12/04 07:08:42;;;;;;;25.17;12.30;;;;;;;-3.89;100.00;101486.19;5032947;28;20172;-44
2023/12/04 07:11:08;;;;;;;21.55;11.73;;;;;;;-3.89;100.00;101474.81;5015682;28;20240;-46
2023/12/04 07:13:34;;;;;;;24.00;12.82;;;;;;;-3.95;100.00;101472.91;5033462;28;20191;-46
2023/12/04 07:15:59;;;;;;;22.95;11.25;;;;;;;-3.95;100.00;101486.00;5033403;28;20202;-44
2023/12/04 07:18:26;;;;;;;24.35;12.07;;;;;;;-3.97;100.00;101485.94;5033552;28;20544;-45
2023/12/04 07:20:51;;;;;;;22.63;12.43;;;;;;;-3.86;100.00;101488.88;5033313;28;20682;-47
2023/12/04 07:23:17;;;;;;;21.98;12.23;;;;;;;-3.83;100.00;101483.72;5033293;28;20176;-45
2023/12/04 07:25:42;;;;;;;23.90;13.32;;;;;;;-3.81;100.00;101482.06;5033605;28;20170;-48
2023/12/04 07:28:08;;;;;;;24.83;13.40;;;;;;;-3.70;100.00;101484.13;5033827;28;20263;-44
2023/12/04 07:30:33;;;;;;;22.35;12.05;;;;;;;-3.67;100.00;101482.50;5033765;28;20195;-43
2023/12/04 07:32:59;;;;;;;23.38;11.95;;;;;;;-3.69;100.00;101488.53;5032782;28;20192;-46
2023/12/04 07:35:26;;;;;;;29.25;13.15;;;;;;;-3.67;100.00;101485.13;5032519;28;20183;-47
2023/12/04 07:37:52;;;;;;;29.95;14.38;;;;;;;-3.68;100.00;101488.56;5033023;28;20556;-44
2023/12/04 07:40:18;;;;;;;25.02;13.40;;;;;;;-3.60;100.00;101488.81;5033666;28;20196;-46
2023/12/04 07:42:43;;;;;;;26.98;14.63;;;;;;;-3.58;100.00;101485.38;5014930;28;20665;-45
2023/12/04 07:45:10;;;;;;;27.23;14.07;;;;;;;-3.52;100.00;101484.66;5014685;28;20349;-44
2023/12/04 07:47:36;;;;;;;31.67;14.77;;;;;;;-3.50;100.00;101493.44;5032662;28;20180;-46
2023/12/04 07:50:02;;;;;;;30.55;14.32;;;;;;;-3.45;100.00;101494.50;5032522;28;20245;-43
2023/12/04 07:52:27;;;;;;;27.83;14.90;;;;;;;-3.29;100.00;101489.72;5032580;28;20604;-47
2023/12/04 07:54:53;;;;;;;32.92;14.93;;;;;;;-3.31;100.00;101484.41;5027166;28;20677;-45
2023/12/04 07:57:19;;;;;;;33.15;15.52;;;;;;;-3.29;100.00;101482.72;5032919;28;20192;-45
2023/12/04 07:59:44;;;;;;;34.85;15.43;;;;;;;-3.22;100.00;101478.53;5032527;28;20721;-45
2023/12/04 08:02:10;;;;;;;30.02;14.48;;;;;;;-3.25;100.00;101486.34;5033151;28;20164;-45
2023/12/04 08:04:36;;;;;;;35.42;15.85;;;;;;;-3.24;100.00;101481.13;5027618;28;20363;-46
2023/12/04 08:07:02;;;;;;;30.88;14.25;;;;;;;-3.21;100.00;101486.47;5027757;28;20219;-46
2023/12/04 08:09:27;;;;;;;30.50;15.45;;;;;;;-3.15;100.00;101493.59;5032701;28;20164;-45
2023/12/04 08:11:53;;;;;;;30.02;15.02;;;;;;;-3.15;100.00;101480.47;5032237;28;20278;-45
2023/12/04 08:14:18;;;;;;;33.40;14.85;;;;;;;-3.10;100.00;101478.91;5032773;28;20267;-45
2023/12/04 08:16:44;;;;;;;32.03;15.27;;;;;;;-3.16;100.00;101481.34;5032607;28;20207;-44
2023/12/04 08:19:11;;;;;;;32.15;14.60;;;;;;;-3.12;100.00;101468.38;5032564;28;20263;-44
2023/12/04 08:21:36;;;;;;;35.63;14.65;;;;;;;-3.09;100.00;101480.66;5014428;28;20187;-45
2023/12/04 08:24:02;;;;;;;27.58;15.48;;;;;;;-3.14;100.00;101466.56;5032731;28;20731;-46
2023/12/04 08:26:28;;;;;;;34.95;15.85;;;;;;;-3.08;100.00;101466.72;5032775;28;20577;-45
2023/12/04 08:28:53;;;;;;;31.05;14.40;;;;;;;-3.06;100.00;101470.28;5032474;28;20196;-47
2023/12/04 08:31:19;;;;;;;37.97;16.50;;;;;;;-3.05;100.00;101463.31;5032319;28;20226;-46
2023/12/04 08:33:45;;;;;;;37.03;16.40;;;;;;;-3.00;100.00;101461.69;5032178;28;20183;-45
2023/12/04 08:36:13;;;;;;;39.78;17.38;;;;;;;-3.00;100.00;101457.31;5032239;28;20694;-46
2023/12/04 08:38:39;;;;;;;29.23;15.50;;;;;;;-2.96;100.00;101456.56;5032201;28;20283;-45
2023/12/04 08:41:04;;;;;;;30.20;15.43;;;;;;;-2.94;100.00;101460.09;5032228;28;20271;-44
2023/12/04 08:43:30;;;;;;;34.45;16.85;;;;;;;-2.81;100.00;101442.09;5032151;28;20164;-46
2023/12/04 08:45:56;;;;;;;35.28;16.02;;;;;;;-2.83;100.00;101454.28;5032139;28;20634;-44
2023/12/04 08:48:21;;;;;;;35.55;16.77;;;;;;;-2.83;100.00;101446.41;5032143;28;20191;-46
2023/12/04 08:50:48;;;;;;;32.58;16.05;;;;;;;-2.83;100.00;101441.16;5031888;28;20242;-46
2023/12/04 08:53:13;;;;;;;33.53;15.68;;;;;;;-2.82;100.00;101440.31;5032153;28;20199;-45
2023/12/04 08:55:39;;;;;;;29.08;15.63;;;;;;;-2.86;100.00;101446.31;5031818;28;20243;-47
2023/12/04 08:58:04;;;;;;;35.78;16.42;;;;;;;-2.79;100.00;101449.16;5032000;28;20702;-46
2023/12/04 09:00:30;;;;;;;33.20;16.40;;;;;;;-2.77;100.00;101449.19;5031574;28;20629;-44
2023/12/04 09:02:56;;;;;;;26.70;13.27;;;;;;;-2.75;100.00;101456.25;5031786;28;20226;-43
2023/12/04 09:05:22;;;;;;;32.25;16.98;;;;;;;-2.75;100.00;101451.00;5031690;28;20585;-46
2023/12/04 09:07:47;;;;;;;28.80;15.18;;;;;;;-2.70;100.00;101453.75;5031057;28;20286;-46
2023/12/04 09:10:13;;;;;;;31.73;15.02;;;;;;;-2.68;100.00;101451.16;5030285;28;20275;-43
2023/12/04 09:12:39;;;;;;;32.58;15.10;;;;;;;-2.74;100.00;101446.66;5030978;28;20512;-47
2023/12/04 09:15:05;;;;;;;30.75;14.52;;;;;;;-2.67;100.00;101452.94;5031265;28;20194;-46
2023/12/04 09:17:31;;;;;;;27.40;14.85;;;;;;;-2.64;100.00;101443.41;5013728;28;20204;-45
2023/12/04 09:19:57;;;;;;;30.83;14.18;;;;;;;-2.61;100.00;101455.72;5031299;28;20192;-44
2023/12/04 09:22:22;;;;;;;32.90;15.68;;;;;;;-2.59;100.00;101451.41;5031361;28;20518;-47
2023/12/04 09:24:47;;;;;;;25.98;14.70;;;;;;;-2.51;100.00;101452.50;5030550;28;20723;-44
2023/12/04 09:27:13;;;;;;;26.70;14.48;;;;;;;-2.56;100.00;101441.88;5031006;28;20172;-45
2023/12/04 09:29:41;;;;;;;27.38;14.70;;;;;;;-2.50;100.00;101447.25;5030500;28;20192;-46
2023/12/04 09:32:06;;;;;;;31.25;14.52;;;;;;;-2.57;100.00;101428.72;5030900;28;20206;-48
2023/12/04 09:34:32;;;;;;;32.20;14.45;;;;;;;-2.55;100.00;101433.16;5030401;28;20210;-44
2023/12/04 09:36:58;;;;;;;24.10;12.18;;;;;;;-2.49;100.00;101430.69;5030410;28;20192;-47
2023/12/04 09:39:23;;;;;;;32.28;14.10;;;;;;;-2.53;100.00;101426.22;5030400;28;20199;-47
2023/12/04 09:41:50;;;;;;;22.77;13.40;;;;;;;-2.50;100.00;101428.00;5030783;28;20333;-44
2023/12/04 09:44:16;;;;;;;25.25;12.95;;;;;;;-2.46;100.00;101422.00;5030383;28;20198;-46
2023/12/04 09:46:42;;;;;;;23.73;13.32;;;;;;;-2.46;100.00;101413.25;5030272;28;20183;-45
2023/12/04 09:49:08;;;;;;;24.92;11.68;;;;;;;-2.42;100.00;101422.97;5030523;28;20180;-43
2023/12/04 09:51:33;;;;;;;22.58;12.07;;;;;;;-2.37;100.00;101419.59;5030428;28;20227;-45
2023/12/04 09:54:03;;;;;;;25.27;13.18;;;;;;;-2.41;100.00;101407.25;5030255;28;20183;-44
2023/12/04 09:56:29;;;;;;;22.05;11.88;;;;;;;-2.39;100.00;101417.78;5030418;28;20198;-46
2023/12/04 09:58:59;;;;;;;21.08;11.10;;;;;;;-2.33;100.00;101405.69;5025524;28;20191;-48
2023/12/04 10:01:26;;;;;;;22.88;12.15;;;;;;;-2.36;100.00;101395.13;5008237;28;20234;-45
2023/12/04 10:03:51;;;;;;;22.50;12.10;;;;;;;-2.28;100.00;101400.56;5024814;28;20235;-47
2023/12/04 10:06:17;;;;;;;23.90;12.75;;;;;;;-2.22;100.00;101394.56;5030249;28;20263;-44
2023/12/04 10:08:47;;;;;;;23.42;12.50;;;;;;;-2.26;100.00;101393.59;5029822;28;20582;-47
2023/12/04 10:11:13;;;;;;;26.25;11.73;;;;;;;-2.23;100.00;101375.31;5025593;28;20323;-44
2023/12/04 10:13:42;;;;;;;24.83;14.43;;;;;;;-2.18;100.00;101378.94;5030480;28;20203;-44
2023/12/04 10:16:09;;;;;;;22.38;12.95;;;;;;;-2.24;100.00;101370.91;5012320;28;20556;-45
2023/12/04 10:18:34;;;;;;;24.63;13.57;;;;;;;-2.19;100.00;101385.00;5030564;28;20258;-45
2023/12/04 10:21:02;;;;;;;34.45;14.75;;;;;;;-2.29;100.00;101373.44;5030567;28;20611;-45
2023/12/04 10:23:41;;;;;;;28.45;13.57;;;;;;;-2.27;100.00;101362.97;5030443;28;20168;-46
2023/12/04 10:26:07;;;;;;;26.17;13.32;;;;;;;-2.25;100.00;101371.78;5030663;28;20168;-47
2023/12/04 10:28:34;;;;;;;21.52;12.00;;;;;;;-2.20;100.00;101364.88;5030397;28;20203;-46
2023/12/04 10:31:00;;;;;;;27.02;14.32;;;;;;;-2.24;100.00;101362.16;5030213;28;20196;-45
2023/12/04 10:33:28;;;;;;;25.90;12.13;;;;;;;-2.13;100.00;101358.91;5041518;28;20191;-48
2023/12/04 10:35:55;;;;;;;24.92;12.45;;;;;;;-2.21;100.00;101359.59;5032016;28;20171;-45
2023/12/04 10:38:20;;;;;;;24.70;12.32;;;;;;;-2.24;100.00;101365.66;5049905;28;20184;-45
2023/12/04 10:40:46;;;;;;;22.88;12.30;;;;;;;-2.25;100.00;101361.28;5048591;28;21089;-47
2023/12/04 10:43:17;;;;;;;26.67;13.57;;;;;;;-2.22;100.00;101353.44;5050363;28;20183;-44
2023/12/04 10:45:45;;;;;;;26.23;13.20;;;;;;;-2.10;100.00;101350.19;5032021;28;20220;-45
2023/12/04 10:48:11;;;;;;;19.02;10.25;;;;;;;-2.16;100.00;101356.22;5048953;28;20163;-47
2023/12/04 10:50:38;;;;;;;24.65;12.98;;;;;;;-2.00;100.00;101354.81;5050393;28;20707;-48
2023/12/04 10:53:05;;;;;;;23.58;12.80;;;;;;;-2.01;100.00;101336.38;5049965;28;20527;-44
2023/12/04 10:55:31;;;;;;;26.00;14.18;;;;;;;-2.02;100.00;101350.38;5049832;28;20168;-45